Time;durP1;ratioP1;P1;durP2;ratioP2;P2;SDS_P1;SDS_P2;PMS_P1;PMS_P2;Temp;Humidity;BMP_temperature;BMP_pressure;BME280_temperature;BME280_humidity;BME280_pressure;Samples;Min_cycle;Max_cycle;Signal;HPM_P1;HPM_P2
2023/05/22 00:01:03;;;;;;;17.65;12.35;;;;;;;17.19;100.00;100898.31;6086329;23;20029;-71
2023/05/22 00:03:30;;;;;;;17.63;12.35;;;;;;;17.17;100.00;100892.28;6110615;23;20022;-71
2023/05/22 00:05:57;;;;;;;13.95;12.27;;;;;;;16.92;100.00;100855.25;6092086;23;20637;-70
2023/05/22 00:08:25;;;;;;;15.85;10.60;;;;;;;17.12;100.00;100893.47;6113424;23;20049;-70
2023/05/22 00:10:55;;;;;;;20.95;13.55;;;;;;;16.90;100.00;100867.75;6084174;23;20089;-71
2023/05/22 00:13:21;;;;;;;18.83;13.23;;;;;;;17.08;100.00;100886.72;6091251;23;20076;-71
2023/05/22 00:15:48;;;;;;;17.48;12.85;;;;;;;16.61;100.00;100827.53;6084635;23;20695;-70
2023/05/22 00:18:14;;;;;;;19.17;12.43;;;;;;;16.78;100.00;100863.38;6095254;23;20025;-71
2023/05/22 00:20:41;;;;;;;14.93;11.73;;;;;;;16.79;100.00;100858.91;6115756;23;20356;-71
2023/05/22 00:23:10;;;;;;;14.07;11.80;;;;;;;16.89;100.00;100881.97;6069965;23;20071;-70
2023/05/22 00:25:40;;;;;;;17.13;12.43;;;;;;;16.86;100.00;100882.22;6104613;23;20748;-71
2023/05/22 00:28:06;;;;;;;14.60;11.45;;;;;;;16.63;100.00;100851.25;6089553;23;20034;-72
2023/05/22 00:30:33;;;;;;;14.27;11.68;;;;;;;16.73;100.00;100871.63;6107270;23;20025;-72
2023/05/22 00:33:01;;;;;;;19.77;12.88;;;;;;;16.72;100.00;100888.53;6114266;23;20661;-71
2023/05/22 00:35:27;;;;;;;20.17;14.00;;;;;;;16.52;100.00;100890.00;6092391;23;20035;-71
2023/05/22 00:37:54;;;;;;;17.55;13.25;;;;;;;16.56;100.00;100885.34;6126447;23;20040;-71
2023/05/22 00:40:21;;;;;;;17.83;12.38;;;;;;;16.52;100.00;100886.53;6119337;23;20042;-71
2023/05/22 00:42:47;;;;;;;26.42;14.52;;;;;;;16.43;100.00;100879.25;6112212;23;20013;-71
2023/05/22 00:45:14;;;;;;;19.77;13.07;;;;;;;16.39;100.00;100875.13;6095322;23;20018;-71
2023/05/22 00:47:41;;;;;;;21.95;13.52;;;;;;;16.10;100.00;100846.34;6109063;23;20021;-71
2023/05/22 00:50:09;;;;;;;21.77;13.80;;;;;;;16.28;100.00;100882.06;6103557;23;20029;-71
2023/05/22 00:52:40;;;;;;;21.85;12.52;;;;;;;16.25;100.00;100884.09;6115454;23;20013;-71
2023/05/22 00:55:07;;;;;;;16.35;12.85;;;;;;;15.86;100.00;100822.50;6096634;23;20100;-71
2023/05/22 00:57:37;;;;;;;20.08;12.27;;;;;;;15.88;100.00;100825.88;6108939;23;20037;-72
2023/05/22 01:00:05;;;;;;;19.13;14.35;;;;;;;16.05;100.00;100848.47;6091527;23;20067;-71
2023/05/22 01:02:31;;;;;;;18.42;13.80;;;;;;;15.92;100.00;100835.28;6116492;23;20033;-71
2023/05/22 01:04:58;;;;;;;15.88;11.65;;;;;;;16.25;100.00;100887.56;6092595;23;20026;-71
2023/05/22 01:07:25;;;;;;;18.63;14.35;;;;;;;16.24;100.00;100885.06;6092293;23;20017;-70
2023/05/22 01:09:51;;;;;;;17.83;12.90;;;;;;;16.20;100.00;100880.94;6094457;23;20013;-71
2023/05/22 01:12:41;;;;;;;19.58;13.63;;;;;;;16.22;100.00;100885.16;6093030;23;20021;-71
2023/05/22 01:15:16;;;;;;;15.93;12.68;;;;;;;16.17;100.00;100897.03;6096947;23;20032;-71
2023/05/22 01:17:48;;;;;;;18.77;11.65;;;;;;;16.13;100.00;100891.13;6115579;23;20361;-71
2023/05/22 01:20:27;;;;;;;18.88;13.02;;;;;;;16.11;100.00;100890.38;6117523;23;20033;-71
2023/05/22 01:23:32;;;;;;;19.27;13.45;;;;;;;16.07;100.00;100889.75;6086929;23;20095;-71
2023/05/22 01:26:11;;;;;;;19.25;14.27;;;;;;;16.08;100.00;100887.97;6102188;23;20006;-72
2023/05/22 01:28:59;;;;;;;16.83;11.63;;;;;;;16.04;100.00;100884.69;6088953;23;20014;-72
2023/05/22 01:31:30;;;;;;;18.52;13.32;;;;;;;15.69;100.00;100831.63;6115918;23;20055;-71
2023/05/22 01:34:00;;;;;;;18.33;13.18;;;;;;;15.75;100.00;100833.84;6074243;23;20271;-71
2023/05/22 01:36:30;;;;;;;26.58;14.07;;;;;;;14.98;100.00;100716.81;6111618;23;20025;-70
2023/05/22 01:39:00;;;;;;;18.88;13.43;;;;;;;15.71;100.00;100845.56;6119783;23;20036;-70
2023/05/22 01:41:28;;;;;;;20.95;14.13;;;;;;;16.02;100.00;100881.31;6108713;23;20026;-71
2023/05/22 01:43:55;;;;;;;17.05;11.07;;;;;;;15.59;100.00;100812.06;6119013;23;20097;-71
2023/05/22 01:46:25;;;;;;;20.67;13.02;;;;;;;15.17;100.00;100746.25;6117628;23;20033;-73
2023/05/22 01:48:52;;;;;;;19.05;12.43;;;;;;;16.01;100.00;100881.41;6120778;23;20013;-72
2023/05/22 01:51:52;;;;;;;30.60;15.13;;;;;;;16.01;100.00;100882.25;6110094;23;20045;-73
2023/05/22 01:54:30;;;;;;;17.13;12.40;;;;;;;15.98;100.00;100879.00;6086824;23;20087;-71
2023/05/22 01:57:36;;;;;;;20.08;14.50;;;;;;;15.92;100.00;100875.84;6118908;23;20083;-72
2023/05/22 02:00:08;;;;;;;16.35;12.75;;;;;;;15.54;100.00;100807.13;6011067;23;20116;-72
2023/05/22 02:02:36;;;;;;;;;;;;;;;15.55;100.00;100808.78;6111631;23;20077;-72
2023/05/22 02:05:04;;;;;;;17.63;13.18;;;;;;;15.86;100.00;100870.16;6086184;23;20578;-70
2023/05/22 02:07:32;;;;;;;32.65;14.00;;;;;;;15.61;100.00;100831.31;6116133;23;20113;-72
2023/05/22 02:10:01;;;;;;;22.00;13.35;;;;;;;15.90;100.00;100869.81;6093031;23;20044;-72
2023/05/22 02:12:28;;;;;;;20.48;12.38;;;;;;;15.61;100.00;100823.38;6112805;23;20041;-71
2023/05/22 02:14:54;;;;;;;22.42;13.68;;;;;;;15.84;100.00;100859.66;6089926;23;20018;-72
2023/05/22 02:17:22;;;;;;;15.27;13.07;;;;;;;15.82;100.00;100860.75;6084104;23;20028;-72
2023/05/22 02:19:48;;;;;;;18.67;13.27;;;;;;;15.84;100.00;100872.91;6107719;23;20133;-71
2023/05/22 02:22:14;;;;;;;18.58;12.82;;;;;;;15.82;100.00;100876.63;6066047;23;20089;-71
2023/05/22 02:24:45;;;;;;;15.77;12.18;;;;;;;15.50;100.00;100824.16;6113103;23;20026;-70
2023/05/22 02:27:13;;;;;;;19.08;11.45;;;;;;;15.78;100.00;100873.34;6089188;23;20676;-70
2023/05/22 02:29:39;;;;;;;16.80;11.88;;;;;;;15.50;100.00;100842.66;6082348;23;20092;-72
2023/05/22 02:32:06;;;;;;;23.15;13.40;;;;;;;15.76;100.00;100891.13;6068894;23;20030;-70
2023/05/22 02:34:33;;;;;;;19.83;13.10;;;;;;;15.72;100.00;100874.63;6117376;23;20029;-72
2023/05/22 02:37:03;;;;;;;16.02;13.38;;;;;;;15.61;100.00;100861.25;6062348;23;20018;-70
2023/05/22 02:39:30;;;;;;;15.88;11.85;;;;;;;15.66;100.00;100877.66;6114458;23;20373;-71
2023/05/22 02:41:56;;;;;;;17.73;13.07;;;;;;;15.64;100.00;100870.81;6095492;23;20029;-71
2023/05/22 02:44:23;;;;;;;17.77;11.90;;;;;;;15.63;100.00;100871.72;6093225;23;20148;-71
2023/05/22 02:46:49;;;;;;;16.17;12.20;;;;;;;15.39;100.00;100827.53;6116356;23;20252;-72
2023/05/22 02:49:15;;;;;;;26.20;13.48;;;;;;;15.49;100.00;100846.25;6110634;23;20033;-71
2023/05/22 02:51:46;;;;;;;15.82;11.68;;;;;;;15.62;100.00;100865.59;6113218;23;20017;-71
2023/05/22 02:54:14;;;;;;;17.30;12.57;;;;;;;15.63;100.00;100866.44;6066196;23;20039;-71
2023/05/22 02:56:42;;;;;;;14.80;11.15;;;;;;;15.58;100.00;100866.78;6117772;23;20037;-71
2023/05/22 02:59:08;;;;;;;18.50;11.07;;;;;;;15.19;100.00;100807.78;6087924;23;20113;-71
2023/05/22 03:01:38;;;;;;;17.17;12.40;;;;;;;15.52;100.00;100860.13;6114691;23;20021;-72
2023/05/22 03:04:05;;;;;;;18.65;12.82;;;;;;;15.58;100.00;100861.50;6116935;23;20030;-71
2023/05/22 03:06:33;;;;;;;17.05;12.30;;;;;;;15.21;100.00;100813.81;6084630;23;20029;-69
2023/05/22 03:09:02;;;;;;;16.45;11.77;;;;;;;15.51;100.00;100868.16;6092646;23;20086;-71
2023/05/22 03:11:30;;;;;;;18.90;12.65;;;;;;;15.32;100.00;100853.56;6113445;23;20036;-71
2023/05/22 03:13:56;;;;;;;15.60;11.55;;;;;;;15.48;100.00;100863.09;6072369;23;20021;-71
2023/05/22 03:16:23;;;;;;;15.60;11.68;;;;;;;15.29;100.00;100845.00;6110212;23;20029;-71
2023/05/22 03:18:50;;;;;;;15.07;10.45;;;;;;;15.19;100.00;100838.66;6087436;23;20040;-71
2023/05/22 03:21:17;;;;;;;14.52;11.55;;;;;;;15.38;100.00;100865.53;6113839;23;20611;-71
2023/05/22 03:23:43;;;;;;;13.13;11.60;;;;;;;15.32;100.00;100866.81;6088919;23;20032;-71
2023/05/22 03:26:10;;;;;;;14.57;10.68;;;;;;;15.26;100.00;100869.88;6087339;23;20472;-71
2023/05/22 03:28:36;;;;;;;18.58;10.55;;;;;;;14.75;100.00;100787.91;6092791;23;20017;-71
2023/05/22 03:31:03;;;;;;;11.90;9.07;;;;;;;14.86;100.00;100792.47;6110443;23;20017;-71
2023/05/22 03:33:29;;;;;;;15.60;11.32;;;;;;;14.26;100.00;100707.56;6094938;23;20162;-71
2023/05/22 03:35:56;;;;;;;12.55;10.95;;;;;;;15.21;100.00;100856.09;6111156;23;20792;-70
2023/05/22 03:38:22;;;;;;;14.27;10.25;;;;;;;15.09;100.00;100849.03;6098556;23;20103;-71
2023/05/22 03:40:49;;;;;;;11.55;10.20;;;;;;;15.16;100.00;100856.44;6107937;23;20089;-70
2023/05/22 03:43:15;;;;;;;12.32;10.25;;;;;;;15.05;100.00;100858.97;6090371;23;20093;-70
2023/05/22 03:45:42;;;;;;;17.90;10.98;;;;;;;15.08;100.00;100861.41;6114660;23;20029;-71
2023/05/22 03:48:09;;;;;;;10.30;9.23;;;;;;;15.15;100.00;100859.19;6116367;23;20160;-74
2023/05/22 03:50:36;;;;;;;12.98;10.13;;;;;;;15.10;100.00;100862.16;6116377;23;20021;-73
2023/05/22 03:53:04;;;;;;;11.02;8.93;;;;;;;15.13;100.00;100864.59;6101756;23;20014;-74
2023/05/22 03:55:31;;;;;;;12.60;10.52;;;;;;;14.78;100.00;100803.56;6109072;23;20025;-74
2023/05/22 03:57:57;;;;;;;16.27;10.75;;;;;;;14.61;100.00;100786.22;6085856;23;20072;-73
2023/05/22 04:00:23;;;;;;;11.35;10.18;;;;;;;15.10;100.00;100862.16;6110243;23;20506;-73
2023/05/22 04:02:53;;;;;;;21.70;10.45;;;;;;;14.34;100.00;100739.56;6061572;23;20038;-73
2023/05/22 04:05:20;;;;;;;9.88;8.68;;;;;;;14.59;100.00;100782.81;6109435;23;20072;-73
2023/05/22 04:07:46;;;;;;;11.30;10.02;;;;;;;15.08;100.00;100865.84;6115607;23;20515;-73
2023/05/22 04:10:13;;;;;;;11.85;9.38;;;;;;;14.63;100.00;100813.38;6118257;23;20024;-73
2023/05/22 04:12:39;;;;;;;10.68;9.45;;;;;;;15.12;100.00;100862.06;6116337;23;20678;-73
2023/05/22 04:15:06;;;;;;;12.30;10.05;;;;;;;15.12;100.00;100865.53;6086697;23;20453;-73
2023/05/22 04:17:34;;;;;;;12.05;10.05;;;;;;;14.16;100.00;100714.41;6116128;23;20558;-74
2023/05/22 04:20:00;;;;;;;12.05;9.90;;;;;;;15.01;100.00;100848.72;6081942;23;20508;-73
2023/05/22 04:22:29;;;;;;;10.13;8.90;;;;;;;15.11;100.00;100874.44;6113749;23;20049;-73
2023/05/22 04:24:56;;;;;;;17.85;11.05;;;;;;;14.60;100.00;100791.63;6087342;23;20660;-74
2023/05/22 04:27:23;;;;;;;13.98;10.18;;;;;;;14.84;100.00;100840.13;6088652;23;20036;-74
2023/05/22 04:29:50;;;;;;;13.50;10.73;;;;;;;14.98;100.00;100862.16;6094393;23;20033;-74
2023/05/22 04:32:17;;;;;;;13.73;9.70;;;;;;;14.75;100.00;100844.25;6110606;23;20049;-74
2023/05/22 04:34:46;;;;;;;12.93;10.80;;;;;;;15.08;100.00;100889.66;6093807;23;20022;-74
2023/05/22 04:37:14;;;;;;;11.88;9.80;;;;;;;14.69;100.00;100814.75;6113278;23;20045;-74
2023/05/22 04:39:40;;;;;;;13.00;9.90;;;;;;;14.90;100.00;100844.16;6098538;23;20080;-74
2023/05/22 04:42:08;;;;;;;15.15;10.80;;;;;;;14.67;100.00;100812.25;6123758;23;20112;-74
2023/05/22 04:44:34;;;;;;;20.00;10.60;;;;;;;13.82;100.00;100663.88;6089636;23;20041;-74
2023/05/22 04:47:01;;;;;;;16.85;12.00;;;;;;;15.18;100.00;100903.09;6120950;23;20073;-73
2023/05/22 04:49:30;;;;;;;19.85;12.80;;;;;;;15.04;100.00;100872.31;6094021;23;20030;-74
2023/05/22 04:51:57;;;;;;;18.73;11.75;;;;;;;14.14;100.00;100714.50;6124197;23;20057;-74
2023/05/22 04:54:23;;;;;;;23.15;13.45;;;;;;;14.91;100.00;100840.56;6094007;23;20158;-72
2023/05/22 04:56:52;;;;;;;16.20;12.43;;;;;;;15.30;100.00;100903.09;6111590;23;20017;-72
2023/05/22 04:59:22;;;;;;;28.00;12.38;;;;;;;15.36;100.00;100899.16;6121037;23;20384;-72
2023/05/22 05:01:49;;;;;;;16.73;12.45;;;;;;;14.99;100.00;100825.03;6086727;23;20087;-72
2023/05/22 05:04:16;;;;;;;21.20;12.57;;;;;;;15.48;100.00;100894.84;6124717;23;20037;-73
2023/05/22 05:06:43;;;;;;;19.27;13.82;;;;;;;15.00;100.00;100804.75;6107959;23;20021;-72
2023/05/22 05:09:10;;;;;;;16.20;12.85;;;;;;;15.52;100.00;100896.31;6121601;23;20037;-72
2023/05/22 05:11:36;;;;;;;17.92;13.30;;;;;;;15.17;100.00;100812.34;6089312;23;20052;-74
2023/05/22 05:14:02;;;;;;;20.15;13.45;;;;;;;15.22;100.00;100854.34;6119490;23;20491;-71
2023/05/22 05:16:29;;;;;;;18.83;14.40;;;;;;;13.95;100.00;100624.31;6088659;23;20589;-73
2023/05/22 05:18:55;;;;;;;17.65;13.63;;;;;;;15.59;100.00;100892.25;6087652;23;20519;-73
2023/05/22 05:21:23;;;;;;;24.17;14.18;;;;;;;15.23;100.00;100822.47;6114766;23;20033;-73
2023/05/22 05:23:50;;;;;;;19.00;14.43;;;;;;;15.53;100.00;100869.72;6084835;23;20053;-73
2023/05/22 05:26:17;;;;;;;25.35;13.43;;;;;;;15.03;100.00;100823.03;6119190;23;20017;-73
2023/05/22 05:28:43;;;;;;;20.65;13.85;;;;;;;15.43;100.00;100859.91;6091756;23;20080;-73
2023/05/22 05:31:10;;;;;;;22.92;13.88;;;;;;;15.50;100.00;100871.75;6097805;23;20072;-74
2023/05/22 05:33:37;;;;;;;20.42;13.32;;;;;;;15.47;100.00;100849.00;6123523;23;20049;-74
2023/05/22 05:36:04;;;;;;;24.23;13.85;;;;;;;15.73;100.00;100884.22;6116956;23;20025;-74
2023/05/22 05:38:30;;;;;;;25.88;14.65;;;;;;;14.93;100.00;100735.59;6089737;23;20022;-74
2023/05/22 05:40:56;;;;;;;22.48;14.10;;;;;;;16.04;100.00;100919.13;6113871;23;20565;-73
2023/05/22 05:43:24;;;;;;;24.65;13.70;;;;;;;16.03;100.00;100900.69;6120678;23;20025;-72
2023/05/22 05:45:50;;;;;;;20.00;14.65;;;;;;;16.05;100.00;100918.13;6107109;23;20013;-73
2023/05/22 05:48:17;;;;;;;27.13;14.95;;;;;;;16.15;100.00;100923.63;6100870;23;20041;-73
2023/05/22 05:50:43;;;;;;;23.83;14.55;;;;;;;15.30;100.00;100797.31;6110690;23;21004;-72
2023/05/22 05:53:10;;;;;;;28.23;15.13;;;;;;;15.73;100.00;100878.09;6090217;23;20623;-73
2023/05/22 05:55:36;;;;;;;29.77;15.90;;;;;;;15.86;100.00;100897.44;6114773;23;20037;-73
2023/05/22 05:58:03;;;;;;;25.70;16.50;;;;;;;16.09;100.00;100932.00;6094920;23;20014;-73
2023/05/22 06:00:30;;;;;;;22.40;14.10;;;;;;;15.15;100.00;100774.59;6112336;23;20021;-74
2023/05/22 06:02:56;;;;;;;28.15;14.20;;;;;;;16.04;100.00;100897.09;6094088;23;20028;-73
2023/05/22 06:05:23;;;;;;;25.80;16.85;;;;;;;16.24;100.00;100936.22;6112839;23;20045;-73
2023/05/22 06:07:50;;;;;;;21.45;15.57;;;;;;;15.88;100.00;100878.81;6095907;23;20086;-73
2023/05/22 06:10:17;;;;;;;26.27;16.00;;;;;;;16.28;100.00;100935.03;6088406;23;20042;-72
2023/05/22 06:12:43;;;;;;;23.15;14.57;;;;;;;16.34;100.00;100933.75;6115622;23;20026;-72
2023/05/22 06:15:12;;;;;;;27.75;15.63;;;;;;;15.38;100.00;100772.13;6112725;23;20093;-72
2023/05/22 06:17:38;;;;;;;25.73;14.70;;;;;;;16.44;100.00;100945.38;6113124;23;20041;-72
2023/05/22 06:20:06;;;;;;;28.02;15.52;;;;;;;15.88;100.00;100863.78;6089690;23;20057;-72
2023/05/22 06:22:32;;;;;;;26.90;14.32;;;;;;;16.49;100.00;100932.59;6113350;23;20151;-72
2023/05/22 06:24:59;;;;;;;24.58;15.43;;;;;;;16.60;100.00;100926.53;6117099;23;20022;-71
2023/05/22 06:27:28;;;;;;;26.58;15.13;;;;;;;15.92;100.00;100827.34;6109775;23;20075;-73
2023/05/22 06:29:54;;;;;;;23.48;14.68;;;;;;;16.39;100.00;100942.19;6094192;23;20013;-72
2023/05/22 06:32:21;;;;;;;31.15;15.90;;;;;;;16.38;100.00;100942.28;6086255;23;20038;-73
2023/05/22 06:34:48;;;;;;;23.83;14.02;;;;;;;15.86;100.00;100878.94;6112287;23;20084;-72
2023/05/22 06:37:15;;;;;;;30.77;14.90;;;;;;;16.24;100.00;100952.09;6093430;23;20033;-72
2023/05/22 06:39:42;;;;;;;22.58;14.63;;;;;;;16.03;100.00;100903.34;6110052;23;20033;-72
2023/05/22 06:42:08;;;;;;;31.65;15.88;;;;;;;16.26;100.00;100949.34;6096940;23;20029;-73
2023/05/22 06:44:37;;;;;;;23.90;15.38;;;;;;;16.07;100.00;100910.94;6118103;23;20045;-73
2023/05/22 06:47:04;;;;;;;29.30;13.93;;;;;;;16.46;100.00;100959.34;6086945;23;20529;-73
2023/05/22 06:49:30;;;;;;;20.00;14.05;;;;;;;16.61;100.00;100957.34;6068927;23;20049;-73
2023/05/22 06:51:57;;;;;;;32.47;16.10;;;;;;;16.65;100.00;100958.00;6111621;23;20014;-72
2023/05/22 06:54:27;;;;;;;25.70;13.90;;;;;;;16.63;100.00;100963.41;6102540;23;20083;-73
2023/05/22 06:56:55;;;;;;;21.58;15.02;;;;;;;16.60;100.00;100968.06;6082675;23;20025;-73
2023/05/22 06:59:21;;;;;;;23.92;14.02;;;;;;;16.77;100.00;100966.84;6086080;23;20044;-71
2023/05/22 07:01:48;;;;;;;24.00;15.70;;;;;;;16.70;100.00;100964.66;6072168;23;20637;-71
2023/05/22 07:04:14;;;;;;;23.48;13.95;;;;;;;14.88;100.00;100703.38;6114334;23;20048;-71
2023/05/22 07:06:41;;;;;;;28.10;14.82;;;;;;;16.33;100.00;100959.38;6084079;23;20022;-71
2023/05/22 07:09:10;;;;;;;23.35;14.80;;;;;;;16.45;100.00;100957.63;6115469;23;20084;-70
2023/05/22 07:11:36;;;;;;;31.42;15.82;;;;;;;16.50;100.00;100928.19;6087760;23;20094;-70
2023/05/22 07:14:03;;;;;;;24.98;15.88;;;;;;;16.52;100.00;100956.25;6114621;23;20072;-70
2023/05/22 07:16:30;;;;;;;32.10;15.63;;;;;;;17.01;100.00;100974.81;6105492;23;20060;-71
2023/05/22 07:18:56;;;;;;;29.90;15.63;;;;;;;17.11;100.00;100976.63;6089329;23;20017;-71
2023/05/22 07:21:23;;;;;;;26.88;14.80;;;;;;;17.21;100.00;100966.19;6087251;23;20045;-71
2023/05/22 07:23:53;;;;;;;24.42;15.50;;;;;;;17.20;100.00;100974.25;6115597;23;20037;-72
2023/05/22 07:26:21;;;;;;;26.85;16.30;;;;;;;17.17;100.00;100975.34;6083476;23;20037;-72
2023/05/22 07:28:49;;;;;;;29.42;14.95;;;;;;;16.93;100.00;100955.00;6106889;23;20025;-71
2023/05/22 07:31:16;;;;;;;33.58;17.17;;;;;;;16.17;100.00;100911.13;6086253;23;20021;-72
2023/05/22 07:33:42;;;;;;;25.30;15.23;;;;;;;16.75;100.00;100982.84;6113369;23;20025;-71
2023/05/22 07:36:09;;;;;;;29.27;16.55;;;;;;;16.72;100.00;100969.84;6109642;23;20025;-72
2023/05/22 07:38:35;;;;;;;24.98;15.32;;;;;;;16.69;100.00;100980.66;6116001;23;20033;-73
2023/05/22 07:41:03;;;;;;;25.50;15.57;;;;;;;16.99;100.00;100993.47;6110737;23;20040;-72
2023/05/22 07:43:30;;;;;;;24.92;15.52;;;;;;;16.23;100.00;100818.00;6116023;23;20057;-71
2023/05/22 07:45:56;;;;;;;22.50;15.05;;;;;;;17.43;100.00;100983.97;6106661;23;20598;-73
2023/05/22 07:48:23;;;;;;;25.98;14.00;;;;;;;16.94;100.00;100911.63;6087418;23;20048;-72
2023/05/22 07:50:50;;;;;;;36.83;16.40;;;;;;;17.40;100.00;100980.69;6105886;23;20017;-73
2023/05/22 07:53:16;;;;;;;31.35;16.13;;;;;;;16.88;100.00;100920.06;6088403;23;20041;-73
2023/05/22 07:55:45;;;;;;;25.65;16.08;;;;;;;16.63;100.00;100905.09;6083442;23;20096;-74
2023/05/22 07:58:12;;;;;;;32.40;16.27;;;;;;;17.33;100.00;100967.91;6112166;23;20033;-74
2023/05/22 08:00:39;;;;;;;25.40;15.07;;;;;;;17.43;100.00;100927.41;6111016;23;20009;-74
2023/05/22 08:03:05;;;;;;;26.80;15.57;;;;;;;17.79;100.00;100971.47;6109882;23;20010;-74
2023/05/22 08:05:32;;;;;;;28.25;16.08;;;;;;;17.66;100.00;100968.06;6084043;23;20037;-74
2023/05/22 08:07:58;;;;;;;19.50;14.48;;;;;;;17.88;100.00;100965.47;6113303;23;20693;-73
2023/05/22 08:10:25;;;;;;;30.92;15.63;;;;;;;18.01;100.00;100965.34;6115375;23;20085;-73
2023/05/22 08:12:57;;;;;;;29.48;15.25;;;;;;;18.01;100.00;100916.69;6062652;23;20025;-73
2023/05/22 08:15:23;;;;;;;25.30;15.25;;;;;;;18.65;100.00;100958.47;6114444;23;20092;-74
2023/05/22 08:17:50;;;;;;;28.88;14.77;;;;;;;18.62;100.00;100935.63;6082075;23;20637;-74
2023/05/22 08:20:16;;;;;;;28.13;17.33;;;;;;;18.09;100.00;100871.78;6110302;23;20270;-74
2023/05/22 08:22:43;;;;;;;25.35;16.00;;;;;;;18.25;100.00;100898.78;6117794;23;20084;-74
2023/05/22 08:25:09;;;;;;;21.92;13.00;;;;;;;18.26;100.00;100916.41;6113022;23;20053;-74
2023/05/22 08:27:36;;;;;;;23.80;13.93;;;;;;;18.45;100.00;100952.13;6087903;23;20026;-73
2023/05/22 08:30:03;;;;;;;23.92;15.70;;;;;;;17.18;100.00;100796.69;6112997;23;20527;-74
2023/05/22 08:32:30;;;;;;;21.98;14.98;;;;;;;17.88;100.00;100946.03;6091940;23;20041;-72
2023/05/22 08:34:58;;;;;;;24.58;14.98;;;;;;;17.21;100.00;100875.16;6115544;23;20028;-71
2023/05/22 08:37:25;;;;;;;24.02;15.00;;;;;;;17.49;100.00;100958.78;6120001;23;20081;-71
2023/05/22 08:39:51;;;;;;;27.98;14.38;;;;;;;17.22;100.00;100903.38;6111551;23;20026;-73
2023/05/22 08:42:18;;;;;;;23.67;14.27;;;;;;;17.21;100.00;100886.63;6115407;23;20021;-76
2023/05/22 08:44:46;;;;;;;19.10;13.18;;;;;;;17.52;100.00;100906.31;6116120;23;20048;-73
2023/05/22 08:47:13;;;;;;;23.95;16.08;;;;;;;17.53;100.00;100870.84;6097822;23;20026;-76
2023/05/22 08:49:41;;;;;;;23.02;13.13;;;;;;;18.25;100.00;100946.59;6112481;23;20601;-75
2023/05/22 08:52:25;;;;;;;18.75;13.82;;;;;;;17.87;100.00;100870.84;6097539;23;20043;-76
2023/05/22 08:54:53;;;;;;;19.05;14.05;;;;;;;18.16;100.00;100920.75;6112803;23;20088;-79
2023/05/22 08:57:20;;;;;;;24.52;14.80;;;;;;;17.64;100.00;100875.31;6092561;23;20081;-75
2023/05/22 08:59:47;;;;;;;20.88;14.25;;;;;;;17.81;100.00;100928.88;6113276;23;20033;-75
2023/05/22 09:02:15;;;;;;;21.65;14.52;;;;;;;17.91;100.00;100943.97;6073916;23;20061;-76
2023/05/22 09:04:42;;;;;;;26.88;14.70;;;;;;;17.74;100.00;100939.97;6116648;23;20036;-75
2023/05/22 09:07:09;;;;;;;21.38;14.20;;;;;;;17.85;100.00;100931.19;6113518;23;20005;-75
2023/05/22 09:09:36;;;;;;;27.35;16.42;;;;;;;17.35;100.00;100866.97;6114052;23;20036;-74
2023/05/22 09:12:10;;;;;;;25.85;15.85;;;;;;;17.62;100.00;100937.41;6116978;23;20036;-75
2023/05/22 09:14:45;;;;;;;25.55;15.55;;;;;;;17.59;100.00;100901.38;6087392;23;20049;-77
2023/05/22 09:17:15;;;;;;;30.67;15.43;;;;;;;17.58;100.00;100966.03;6117547;23;20478;-73
2023/05/22 09:19:44;;;;;;;25.10;14.65;;;;;;;17.74;100.00;100963.88;6113800;23;20093;-75
2023/05/22 09:22:12;;;;;;;25.70;15.77;;;;;;;17.91;100.00;100956.41;6118004;23;20030;-76
2023/05/22 09:24:43;;;;;;;19.45;13.48;;;;;;;17.45;100.00;100835.28;6085383;23;20037;-77
2023/05/22 09:27:10;;;;;;;26.03;15.57;;;;;;;18.25;100.00;100922.69;6115728;23;20086;-75
2023/05/22 09:29:48;;;;;;;32.92;16.58;;;;;;;18.66;100.00;100941.53;6107717;23;20023;-77
2023/05/22 09:32:15;;;;;;;26.80;15.75;;;;;;;18.62;97.46;100897.56;6094388;23;20037;-76
2023/05/22 09:34:43;;;;;;;26.05;15.35;;;;;;;18.49;95.27;100842.75;6083342;23;20018;-77
2023/05/22 09:37:11;;;;;;;34.20;15.18;;;;;;;18.32;95.35;100876.06;6120676;23;20021;-77
2023/05/22 09:39:44;;;;;;;25.50;14.57;;;;;;;18.91;97.42;100921.75;6059462;23;20087;-78
2023/05/22 09:42:14;;;;;;;25.85;15.95;;;;;;;18.60;94.42;100876.44;6092070;23;20017;-78
2023/05/22 09:44:48;;;;;;;22.40;14.80;;;;;;;18.68;96.19;100897.03;6122897;23;20021;-79
2023/05/22 09:47:14;;;;;;;35.40;15.93;;;;;;;19.15;95.33;100932.16;6067459;23;20029;-79
2023/05/22 09:49:42;;;;;;;28.73;15.30;;;;;;;18.95;92.81;100870.00;6085291;23;20028;-77
2023/05/22 09:52:13;;;;;;;24.85;15.27;;;;;;;19.11;92.59;100910.28;6121141;23;20599;-74
2023/05/22 09:54:54;;;;;;;26.83;14.50;;;;;;;19.16;93.30;100885.09;6086916;23;20300;-78
2023/05/22 09:57:23;;;;;;;22.73;14.60;;;;;;;19.31;90.74;100902.41;6119776;23;20631;-75
2023/05/22 09:59:57;;;;;;;28.33;16.35;;;;;;;17.94;90.96;100720.69;6095604;23;20029;-74
2023/05/22 10:02:26;;;;;;;25.50;16.70;;;;;;;18.53;90.86;100814.13;6118286;23;20025;-76
2023/05/22 10:04:53;;;;;;;32.70;16.33;;;;;;;19.17;92.60;100886.78;6085379;23;20025;-76
2023/05/22 10:07:26;;;;;;;35.28;16.52;;;;;;;19.79;90.42;100893.00;6106385;23;20024;-75
2023/05/22 10:10:06;;;;;;;26.17;15.20;;;;;;;19.70;86.57;100826.22;6088298;23;20080;-76
2023/05/22 10:12:36;;;;;;;24.48;15.02;;;;;;;20.26;86.03;100862.09;6119908;23;20013;-76
2023/05/22 10:15:06;;;;;;;23.98;14.80;;;;;;;19.19;86.64;100805.88;6086790;23;20041;-75
2023/05/22 10:17:33;;;;;;;24.85;14.63;;;;;;;19.57;87.57;100865.56;6113510;23;20405;-76
2023/05/22 10:20:00;;;;;;;25.08;15.45;;;;;;;19.56;86.57;100868.34;6101285;23;20032;-77
2023/05/22 10:22:28;;;;;;;27.35;16.63;;;;;;;19.18;86.90;100859.19;6115125;23;20024;-75
2023/05/22 10:24:54;;;;;;;22.42;14.20;;;;;;;19.32;91.12;100904.09;6092822;23;20010;-78
2023/05/22 10:27:21;;;;;;;26.10;15.90;;;;;;;19.39;88.49;100838.72;6114491;23;20033;-79
2023/05/22 10:29:57;;;;;;;21.27;14.93;;;;;;;18.22;88.73;100697.16;6095577;23;20046;-78
2023/05/22 10:32:37;;;;;;;29.35;15.75;;;;;;;19.05;88.66;100796.41;6111757;23;20058;-77
2023/05/22 10:35:16;;;;;;;28.80;15.32;;;;;;;19.50;86.15;100785.41;6104347;23;20582;-79
2023/05/22 10:38:20;;;;;;;24.75;15.75;;;;;;;20.27;82.77;100829.13;6117829;23;20067;-79
2023/05/22 10:40:47;;;;;;;25.50;15.35;;;;;;;19.43;85.01;100820.66;6091012;23;20024;-78
2023/05/22 10:43:14;;;;;;;25.48;14.68;;;;;;;19.12;86.27;100752.34;6122823;23;20096;-79
2023/05/22 10:45:45;;;;;;;26.20;15.23;;;;;;;19.91;85.92;100823.47;6120667;23;20025;-79
2023/05/22 10:48:11;;;;;;;26.70;14.98;;;;;;;19.67;83.24;100756.44;6101301;23;20027;-79
2023/05/22 10:50:39;;;;;;;28.33;16.42;;;;;;;19.93;83.68;100802.88;6115009;23;20092;-79
2023/05/22 10:53:21;;;;;;;34.78;17.23;;;;;;;19.62;85.05;100812.72;6114956;23;20029;-78
2023/05/22 10:55:48;;;;;;;24.60;17.25;;;;;;;19.53;85.96;100762.97;6120846;23;20029;-77
2023/05/22 10:58:15;;;;;;;28.55;16.27;;;;;;;19.56;85.57;100754.69;6092743;23;20033;-78
2023/05/22 11:00:43;;;;;;;30.55;15.45;;;;;;;20.42;83.25;100797.56;6098498;23;20032;-79
2023/05/22 11:03:11;;;;;;;32.45;16.50;;;;;;;20.74;79.98;100790.25;6122771;23;20037;-78
2023/05/22 11:05:51;;;;;;;33.60;15.77;;;;;;;20.39;79.64;100725.03;6093556;23;20081;-79
2023/05/22 11:08:27;;;;;;;31.00;16.35;;;;;;;21.11;78.93;100788.44;6121329;23;20056;-79
2023/05/22 11:10:57;;;;;;;28.08;16.05;;;;;;;21.04;77.41;100755.31;6098382;23;20032;-78